sensor_id;sensor_type;location;lat;lon;timestamp;P1;durP1;ratioP1;P2;durP2;ratioP2
77868;SDS011;67231;59.144;37.934;2023-10-19T00:00:14;8.85;;;3.83;;
77868;SDS011;67231;59.144;37.934;2023-10-19T00:02:49;12.38;;;4.63;;
77868;SDS011;67231;59.144;37.934;2023-10-19T00:05:18;9.23;;;4.00;;
77868;SDS011;67231;59.144;37.934;2023-10-19T00:07:46;12.43;;;4.75;;
77868;SDS011;67231;59.144;37.934;2023-10-19T00:10:13;10.32;;;4.47;;
77868;SDS011;67231;59.144;37.934;2023-10-19T00:12:42;12.15;;;3.92;;
77868;SDS011;67231;59.144;37.934;2023-10-19T00:15:10;12.10;;;4.40;;
77868;SDS011;67231;59.144;37.934;2023-10-19T00:17:38;12.07;;;4.18;;
77868;SDS011;67231;59.144;37.934;2023-10-19T00:20:05;9.68;;;3.92;;
77868;SDS011;67231;59.144;37.934;2023-10-19T00:23:11;10.15;;;3.97;;
77868;SDS011;67231;59.144;37.934;2023-10-19T00:25:39;11.00;;;4.10;;
77868;SDS011;67231;59.144;37.934;2023-10-19T00:28:10;11.23;;;3.90;;
77868;SDS011;67231;59.144;37.934;2023-10-19T00:30:38;8.82;;;3.42;;
77868;SDS011;67231;59.144;37.934;2023-10-19T00:33:09;10.75;;;4.10;;
77868;SDS011;67231;59.144;37.934;2023-10-19T00:35:42;10.45;;;3.65;;
77868;SDS011;67231;59.144;37.934;2023-10-19T00:38:13;7.70;;;3.60;;
77868;SDS011;67231;59.144;37.934;2023-10-19T00:40:52;8.27;;;3.58;;
77868;SDS011;67231;59.144;37.934;2023-10-19T00:43:54;8.20;;;3.50;;
77868;SDS011;67231;59.144;37.934;2023-10-19T00:46:24;8.05;;;3.20;;
77868;SDS011;67231;59.144;37.934;2023-10-19T00:49:02;8.73;;;3.40;;
77868;SDS011;67231;59.144;37.934;2023-10-19T00:51:36;8.82;;;3.25;;
77868;SDS011;67231;59.144;37.934;2023-10-19T00:54:13;7.00;;;3.03;;
77868;SDS011;67231;59.144;37.934;2023-10-19T00:56:52;9.80;;;3.40;;
77868;SDS011;67231;59.144;37.934;2023-10-19T00:59:21;9.32;;;3.08;;
77868;SDS011;67231;59.144;37.934;2023-10-19T01:01:51;8.52;;;3.22;;
77868;SDS011;67231;59.144;37.934;2023-10-19T01:04:29;8.63;;;3.65;;
77868;SDS011;67231;59.144;37.934;2023-10-19T01:07:00;8.10;;;3.38;;
77868;SDS011;67231;59.144;37.934;2023-10-19T01:12:10;12.57;;;4.32;;
77868;SDS011;67231;59.144;37.934;2023-10-19T01:15:08;12.15;;;4.60;;
77868;SDS011;67231;59.144;37.934;2023-10-19T01:17:49;7.72;;;3.63;;
77868;SDS011;67231;59.144;37.934;2023-10-19T01:20:27;7.50;;;3.65;;
77868;SDS011;67231;59.144;37.934;2023-10-19T01:25:43;10.25;;;3.53;;
77868;SDS011;67231;59.144;37.934;2023-10-19T01:28:37;9.90;;;4.13;;
77868;SDS011;67231;59.144;37.934;2023-10-19T01:31:14;16.50;;;5.47;;
77868;SDS011;67231;59.144;37.934;2023-10-19T01:33:59;10.30;;;4.63;;
77868;SDS011;67231;59.144;37.934;2023-10-19T01:36:33;9.73;;;4.55;;
77868;SDS011;67231;59.144;37.934;2023-10-19T01:39:08;11.30;;;4.85;;
77868;SDS011;67231;59.144;37.934;2023-10-19T01:41:38;9.52;;;4.57;;
77868;SDS011;67231;59.144;37.934;2023-10-19T01:46:38;10.38;;;4.72;;
77868;SDS011;67231;59.144;37.934;2023-10-19T01:49:06;16.17;;;7.72;;
77868;SDS011;67231;59.144;37.934;2023-10-19T01:51:34;19.17;;;7.85;;
77868;SDS011;67231;59.144;37.934;2023-10-19T01:54:09;14.05;;;6.20;;
77868;SDS011;67231;59.144;37.934;2023-10-19T01:56:35;14.65;;;6.88;;
77868;SDS011;67231;59.144;37.934;2023-10-19T01:59:04;12.27;;;5.10;;
77868;SDS011;67231;59.144;37.934;2023-10-19T02:01:32;8.15;;;3.90;;
77868;SDS011;67231;59.144;37.934;2023-10-19T02:03:59;11.20;;;4.60;;
77868;SDS011;67231;59.144;37.934;2023-10-19T02:06:30;12.25;;;5.28;;
77868;SDS011;67231;59.144;37.934;2023-10-19T02:09:05;9.27;;;4.95;;
77868;SDS011;67231;59.144;37.934;2023-10-19T02:11:53;10.57;;;5.13;;
77868;SDS011;67231;59.144;37.934;2023-10-19T02:14:31;9.75;;;4.38;;
77868;SDS011;67231;59.144;37.934;2023-10-19T02:17:02;7.60;;;3.90;;
77868;SDS011;67231;59.144;37.934;2023-10-19T02:19:30;9.60;;;5.13;;
77868;SDS011;67231;59.144;37.934;2023-10-19T02:22:04;14.15;;;5.85;;
77868;SDS011;67231;59.144;37.934;2023-10-19T02:24:34;10.68;;;5.55;;
77868;SDS011;67231;59.144;37.934;2023-10-19T02:27:01;9.80;;;4.63;;
77868;SDS011;67231;59.144;37.934;2023-10-19T02:29:28;7.75;;;3.97;;
77868;SDS011;67231;59.144;37.934;2023-10-19T02:31:56;5.90;;;2.95;;
77868;SDS011;67231;59.144;37.934;2023-10-19T02:34:23;9.13;;;4.25;;
77868;SDS011;67231;59.144;37.934;2023-10-19T02:36:50;8.25;;;4.10;;
77868;SDS011;67231;59.144;37.934;2023-10-19T02:39:16;10.05;;;3.53;;
77868;SDS011;67231;59.144;37.934;2023-10-19T02:41:44;8.98;;;3.50;;
77868;SDS011;67231;59.144;37.934;2023-10-19T02:44:15;5.20;;;2.33;;
77868;SDS011;67231;59.144;37.934;2023-10-19T02:46:48;9.52;;;4.65;;
77868;SDS011;67231;59.144;37.934;2023-10-19T02:49:19;39.95;;;14.07;;
77868;SDS011;67231;59.144;37.934;2023-10-19T02:54:19;7.47;;;2.47;;
77868;SDS011;67231;59.144;37.934;2023-10-19T02:59:19;3.80;;;1.30;;
77868;SDS011;67231;59.144;37.934;2023-10-19T03:01:50;5.15;;;1.60;;
77868;SDS011;67231;59.144;37.934;2023-10-19T03:04:32;4.22;;;1.55;;
77868;SDS011;67231;59.144;37.934;2023-10-19T03:07:02;3.45;;;1.30;;
77868;SDS011;67231;59.144;37.934;2023-10-19T03:09:30;3.38;;;1.40;;
77868;SDS011;67231;59.144;37.934;2023-10-19T03:11:57;3.95;;;1.38;;
77868;SDS011;67231;59.144;37.934;2023-10-19T03:14:31;5.47;;;1.80;;
77868;SDS011;67231;59.144;37.934;2023-10-19T03:16:59;3.97;;;1.70;;
77868;SDS011;67231;59.144;37.934;2023-10-19T03:19:26;5.85;;;1.88;;
77868;SDS011;67231;59.144;37.934;2023-10-19T03:21:53;5.68;;;1.85;;
77868;SDS011;67231;59.144;37.934;2023-10-19T03:24:21;4.00;;;1.60;;
77868;SDS011;67231;59.144;37.934;2023-10-19T03:27:16;3.40;;;1.40;;
77868;SDS011;67231;59.144;37.934;2023-10-19T03:29:58;2.95;;;1.52;;
77868;SDS011;67231;59.144;37.934;2023-10-19T03:32:25;4.32;;;1.60;;
77868;SDS011;67231;59.144;37.934;2023-10-19T03:34:56;3.42;;;1.52;;
77868;SDS011;67231;59.144;37.934;2023-10-19T03:37:24;5.72;;;2.08;;
77868;SDS011;67231;59.144;37.934;2023-10-19T03:39:57;3.30;;;1.55;;
77868;SDS011;67231;59.144;37.934;2023-10-19T03:42:25;2.97;;;1.50;;
77868;SDS011;67231;59.144;37.934;2023-10-19T03:44:53;3.90;;;1.73;;
77868;SDS011;67231;59.144;37.934;2023-10-19T03:47:21;4.70;;;2.10;;
77868;SDS011;67231;59.144;37.934;2023-10-19T03:49:51;5.05;;;2.75;;
77868;SDS011;67231;59.144;37.934;2023-10-19T03:52:19;9.45;;;3.47;;
77868;SDS011;67231;59.144;37.934;2023-10-19T03:54:45;7.25;;;3.13;;
77868;SDS011;67231;59.144;37.934;2023-10-19T03:57:14;8.85;;;3.67;;
77868;SDS011;67231;59.144;37.934;2023-10-19T03:59:46;11.60;;;4.00;;
77868;SDS011;67231;59.144;37.934;2023-10-19T04:02:18;10.65;;;3.75;;
77868;SDS011;67231;59.144;37.934;2023-10-19T04:04:49;7.20;;;3.20;;
77868;SDS011;67231;59.144;37.934;2023-10-19T04:07:18;6.85;;;2.55;;
77868;SDS011;67231;59.144;37.934;2023-10-19T04:09:50;9.88;;;3.65;;
77868;SDS011;67231;59.144;37.934;2023-10-19T04:12:36;7.50;;;2.22;;
77868;SDS011;67231;59.144;37.934;2023-10-19T04:15:08;6.97;;;2.50;;
77868;SDS011;67231;59.144;37.934;2023-10-19T04:17:43;6.38;;;2.65;;
77868;SDS011;67231;59.144;37.934;2023-10-19T04:20:17;7.20;;;4.03;;
77868;SDS011;67231;59.144;37.934;2023-10-19T04:25:12;11.68;;;5.63;;
77868;SDS011;67231;59.144;37.934;2023-10-19T04:27:39;16.10;;;8.00;;
77868;SDS011;67231;59.144;37.934;2023-10-19T04:30:08;10.18;;;4.78;;
77868;SDS011;67231;59.144;37.934;2023-10-19T04:32:42;8.25;;;4.43;;
77868;SDS011;67231;59.144;37.934;2023-10-19T04:35:10;5.97;;;3.33;;
77868;SDS011;67231;59.144;37.934;2023-10-19T04:42:35;20.67;;;7.88;;
77868;SDS011;67231;59.144;37.934;2023-10-19T04:45:02;6.72;;;3.60;;
77868;SDS011;67231;59.144;37.934;2023-10-19T04:47:31;17.65;;;6.80;;
77868;SDS011;67231;59.144;37.934;2023-10-19T04:50:02;6.85;;;3.60;;
77868;SDS011;67231;59.144;37.934;2023-10-19T04:52:31;3.90;;;2.47;;
77868;SDS011;67231;59.144;37.934;2023-10-19T04:54:59;3.10;;;1.90;;
77868;SDS011;67231;59.144;37.934;2023-10-19T04:57:31;4.40;;;2.13;;
77868;SDS011;67231;59.144;37.934;2023-10-19T04:59:57;5.63;;;3.13;;
77868;SDS011;67231;59.144;37.934;2023-10-19T05:02:24;4.60;;;2.75;;
77868;SDS011;67231;59.144;37.934;2023-10-19T05:04:50;6.05;;;1.90;;
77868;SDS011;67231;59.144;37.934;2023-10-19T05:07:17;5.57;;;2.13;;
77868;SDS011;67231;59.144;37.934;2023-10-19T05:09:44;5.63;;;2.15;;
77868;SDS011;67231;59.144;37.934;2023-10-19T05:12:12;6.35;;;3.20;;
77868;SDS011;67231;59.144;37.934;2023-10-19T05:14:41;6.07;;;2.70;;
77868;SDS011;67231;59.144;37.934;2023-10-19T05:17:09;6.68;;;2.85;;
77868;SDS011;67231;59.144;37.934;2023-10-19T05:19:37;6.20;;;2.80;;
77868;SDS011;67231;59.144;37.934;2023-10-19T05:22:05;4.25;;;1.98;;
77868;SDS011;67231;59.144;37.934;2023-10-19T05:24:33;5.85;;;2.65;;
77868;SDS011;67231;59.144;37.934;2023-10-19T05:27:00;5.90;;;2.97;;
77868;SDS011;67231;59.144;37.934;2023-10-19T05:29:26;9.80;;;5.22;;
77868;SDS011;67231;59.144;37.934;2023-10-19T05:31:53;9.00;;;3.85;;
77868;SDS011;67231;59.144;37.934;2023-10-19T05:34:20;8.50;;;3.75;;
77868;SDS011;67231;59.144;37.934;2023-10-19T05:36:47;6.88;;;4.03;;
77868;SDS011;67231;59.144;37.934;2023-10-19T05:39:17;7.28;;;3.58;;
77868;SDS011;67231;59.144;37.934;2023-10-19T05:41:44;3.88;;;1.70;;
77868;SDS011;67231;59.144;37.934;2023-10-19T05:44:10;4.22;;;1.75;;
77868;SDS011;67231;59.144;37.934;2023-10-19T05:46:36;5.38;;;2.03;;
77868;SDS011;67231;59.144;37.934;2023-10-19T05:49:04;6.60;;;2.45;;
77868;SDS011;67231;59.144;37.934;2023-10-19T05:51:32;4.50;;;2.30;;
77868;SDS011;67231;59.144;37.934;2023-10-19T05:53:58;5.53;;;3.60;;
77868;SDS011;67231;59.144;37.934;2023-10-19T05:56:32;4.30;;;2.45;;
77868;SDS011;67231;59.144;37.934;2023-10-19T05:59:00;3.10;;;1.55;;
77868;SDS011;67231;59.144;37.934;2023-10-19T06:01:28;4.55;;;2.20;;
77868;SDS011;67231;59.144;37.934;2023-10-19T06:03:54;7.80;;;3.42;;
77868;SDS011;67231;59.144;37.934;2023-10-19T06:06:20;6.63;;;3.33;;
77868;SDS011;67231;59.144;37.934;2023-10-19T06:08:47;14.15;;;4.72;;
77868;SDS011;67231;59.144;37.934;2023-10-19T06:11:15;9.10;;;5.15;;
77868;SDS011;67231;59.144;37.934;2023-10-19T06:13:41;6.32;;;3.45;;
77868;SDS011;67231;59.144;37.934;2023-10-19T06:16:09;6.63;;;3.38;;
77868;SDS011;67231;59.144;37.934;2023-10-19T06:18:35;9.52;;;5.18;;
77868;SDS011;67231;59.144;37.934;2023-10-19T06:21:01;13.50;;;5.72;;
77868;SDS011;67231;59.144;37.934;2023-10-19T06:23:29;14.95;;;5.75;;
77868;SDS011;67231;59.144;37.934;2023-10-19T06:25:57;9.95;;;4.32;;
77868;SDS011;67231;59.144;37.934;2023-10-19T06:28:23;12.18;;;4.60;;
77868;SDS011;67231;59.144;37.934;2023-10-19T06:30:49;9.60;;;3.95;;
77868;SDS011;67231;59.144;37.934;2023-10-19T06:33:16;8.52;;;4.03;;
77868;SDS011;67231;59.144;37.934;2023-10-19T06:35:43;10.18;;;6.13;;
77868;SDS011;67231;59.144;37.934;2023-10-19T06:38:09;5.22;;;2.85;;
77868;SDS011;67231;59.144;37.934;2023-10-19T06:40:35;4.72;;;2.25;;
77868;SDS011;67231;59.144;37.934;2023-10-19T06:43:02;4.53;;;2.17;;
77868;SDS011;67231;59.144;37.934;2023-10-19T06:45:30;5.28;;;2.22;;
77868;SDS011;67231;59.144;37.934;2023-10-19T06:47:56;5.72;;;2.00;;
77868;SDS011;67231;59.144;37.934;2023-10-19T06:50:24;6.85;;;3.72;;
77868;SDS011;67231;59.144;37.934;2023-10-19T06:52:51;3.03;;;1.73;;
77868;SDS011;67231;59.144;37.934;2023-10-19T06:55:20;4.50;;;2.08;;
77868;SDS011;67231;59.144;37.934;2023-10-19T06:57:48;5.40;;;2.03;;
77868;SDS011;67231;59.144;37.934;2023-10-19T07:00:17;5.63;;;2.30;;
77868;SDS011;67231;59.144;37.934;2023-10-19T07:02:49;4.07;;;1.80;;
77868;SDS011;67231;59.144;37.934;2023-10-19T07:05:19;5.00;;;2.20;;
77868;SDS011;67231;59.144;37.934;2023-10-19T07:07:56;5.82;;;2.30;;
77868;SDS011;67231;59.144;37.934;2023-10-19T07:10:26;6.03;;;2.30;;
77868;SDS011;67231;59.144;37.934;2023-10-19T07:12:55;4.10;;;2.28;;
77868;SDS011;67231;59.144;37.934;2023-10-19T07:15:23;6.22;;;2.92;;
77868;SDS011;67231;59.144;37.934;2023-10-19T07:17:52;6.28;;;2.78;;
77868;SDS011;67231;59.144;37.934;2023-10-19T07:20:21;7.43;;;3.22;;
77868;SDS011;67231;59.144;37.934;2023-10-19T07:23:05;6.35;;;3.08;;
77868;SDS011;67231;59.144;37.934;2023-10-19T07:25:53;6.65;;;2.60;;
77868;SDS011;67231;59.144;37.934;2023-10-19T07:28:26;12.57;;;4.90;;
77868;SDS011;67231;59.144;37.934;2023-10-19T07:30:55;8.07;;;4.20;;
77868;SDS011;67231;59.144;37.934;2023-10-19T07:33:32;8.35;;;4.68;;
77868;SDS011;67231;59.144;37.934;2023-10-19T07:35:59;7.55;;;3.88;;
77868;SDS011;67231;59.144;37.934;2023-10-19T07:38:26;4.97;;;2.75;;
77868;SDS011;67231;59.144;37.934;2023-10-19T07:40:54;8.27;;;3.50;;
77868;SDS011;67231;59.144;37.934;2023-10-19T07:43:21;6.07;;;2.63;;
77868;SDS011;67231;59.144;37.934;2023-10-19T07:45:47;3.25;;;1.90;;
77868;SDS011;67231;59.144;37.934;2023-10-19T07:48:14;4.72;;;1.77;;
77868;SDS011;67231;59.144;37.934;2023-10-19T07:50:41;2.00;;;1.33;;
77868;SDS011;67231;59.144;37.934;2023-10-19T07:53:08;3.33;;;1.60;;
77868;SDS011;67231;59.144;37.934;2023-10-19T07:55:35;2.35;;;1.30;;
77868;SDS011;67231;59.144;37.934;2023-10-19T07:58:04;2.40;;;1.20;;
77868;SDS011;67231;59.144;37.934;2023-10-19T08:00:33;2.95;;;1.20;;
77868;SDS011;67231;59.144;37.934;2023-10-19T08:03:02;4.65;;;1.65;;
77868;SDS011;67231;59.144;37.934;2023-10-19T08:05:30;2.70;;;1.40;;
77868;SDS011;67231;59.144;37.934;2023-10-19T08:07:56;9.35;;;4.28;;
77868;SDS011;67231;59.144;37.934;2023-10-19T08:10:24;12.50;;;4.53;;
77868;SDS011;67231;59.144;37.934;2023-10-19T08:12:52;3.60;;;1.85;;
77868;SDS011;67231;59.144;37.934;2023-10-19T08:15:19;3.70;;;1.90;;
77868;SDS011;67231;59.144;37.934;2023-10-19T08:17:47;10.07;;;3.20;;
77868;SDS011;67231;59.144;37.934;2023-10-19T08:20:20;4.88;;;2.40;;
77868;SDS011;67231;59.144;37.934;2023-10-19T08:25:16;14.20;;;4.93;;
77868;SDS011;67231;59.144;37.934;2023-10-19T08:27:43;14.10;;;4.50;;
77868;SDS011;67231;59.144;37.934;2023-10-19T08:30:12;6.95;;;2.63;;
77868;SDS011;67231;59.144;37.934;2023-10-19T08:32:41;10.48;;;3.28;;
77868;SDS011;67231;59.144;37.934;2023-10-19T08:35:08;10.18;;;3.05;;
77868;SDS011;67231;59.144;37.934;2023-10-19T08:37:38;12.13;;;4.20;;
77868;SDS011;67231;59.144;37.934;2023-10-19T08:40:09;9.68;;;3.33;;
77868;SDS011;67231;59.144;37.934;2023-10-19T08:42:45;9.02;;;4.03;;
77868;SDS011;67231;59.144;37.934;2023-10-19T08:45:12;8.10;;;3.38;;
77868;SDS011;67231;59.144;37.934;2023-10-19T08:47:56;7.80;;;2.88;;
77868;SDS011;67231;59.144;37.934;2023-10-19T08:50:26;2.55;;;1.20;;
77868;SDS011;67231;59.144;37.934;2023-10-19T08:52:55;8.57;;;3.20;;
77868;SDS011;67231;59.144;37.934;2023-10-19T08:55:23;7.03;;;2.70;;
77868;SDS011;67231;59.144;37.934;2023-10-19T08:57:50;4.13;;;1.90;;
77868;SDS011;67231;59.144;37.934;2023-10-19T09:00:18;12.57;;;5.43;;
77868;SDS011;67231;59.144;37.934;2023-10-19T09:02:46;7.70;;;3.60;;
77868;SDS011;67231;59.144;37.934;2023-10-19T09:05:13;7.15;;;3.17;;
77868;SDS011;67231;59.144;37.934;2023-10-19T09:07:57;10.82;;;5.32;;
77868;SDS011;67231;59.144;37.934;2023-10-19T09:10:26;9.15;;;3.80;;
77868;SDS011;67231;59.144;37.934;2023-10-19T09:12:59;14.73;;;6.43;;
77868;SDS011;67231;59.144;37.934;2023-10-19T09:15:36;8.55;;;5.35;;
77868;SDS011;67231;59.144;37.934;2023-10-19T09:18:14;9.70;;;4.60;;
77868;SDS011;67231;59.144;37.934;2023-10-19T09:20:44;7.43;;;3.55;;
77868;SDS011;67231;59.144;37.934;2023-10-19T09:23:30;5.55;;;2.63;;
77868;SDS011;67231;59.144;37.934;2023-10-19T09:25:58;3.63;;;1.83;;
77868;SDS011;67231;59.144;37.934;2023-10-19T09:28:29;4.78;;;2.40;;
77868;SDS011;67231;59.144;37.934;2023-10-19T09:31:00;4.22;;;2.13;;
77868;SDS011;67231;59.144;37.934;2023-10-19T09:33:27;4.47;;;2.20;;
77868;SDS011;67231;59.144;37.934;2023-10-19T09:35:55;5.57;;;2.13;;
77868;SDS011;67231;59.144;37.934;2023-10-19T09:38:27;5.85;;;2.20;;
77868;SDS011;67231;59.144;37.934;2023-10-19T09:40:54;4.20;;;1.73;;
77868;SDS011;67231;59.144;37.934;2023-10-19T09:46:06;2.85;;;1.40;;
77868;SDS011;67231;59.144;37.934;2023-10-19T09:48:45;3.28;;;1.70;;
77868;SDS011;67231;59.144;37.934;2023-10-19T09:51:14;2.42;;;1.40;;
77868;SDS011;67231;59.144;37.934;2023-10-19T09:53:47;3.83;;;1.40;;
77868;SDS011;67231;59.144;37.934;2023-10-19T09:56:19;3.65;;;1.42;;
77868;SDS011;67231;59.144;37.934;2023-10-19T09:58:48;2.40;;;1.40;;
77868;SDS011;67231;59.144;37.934;2023-10-19T10:01:17;3.08;;;1.90;;
77868;SDS011;67231;59.144;37.934;2023-10-19T10:03:49;3.53;;;2.10;;
77868;SDS011;67231;59.144;37.934;2023-10-19T10:08:58;8.48;;;2.63;;
77868;SDS011;67231;59.144;37.934;2023-10-19T10:11:27;5.72;;;2.60;;
77868;SDS011;67231;59.144;37.934;2023-10-19T10:13:57;5.03;;;2.47;;
77868;SDS011;67231;59.144;37.934;2023-10-19T10:16:25;8.38;;;2.92;;
77868;SDS011;67231;59.144;37.934;2023-10-19T10:18:54;3.00;;;2.03;;
77868;SDS011;67231;59.144;37.934;2023-10-19T10:21:27;3.03;;;1.77;;
77868;SDS011;67231;59.144;37.934;2023-10-19T10:23:56;3.42;;;1.80;;
77868;SDS011;67231;59.144;37.934;2023-10-19T10:29:11;3.08;;;1.40;;
77868;SDS011;67231;59.144;37.934;2023-10-19T10:31:41;2.25;;;1.35;;
77868;SDS011;67231;59.144;37.934;2023-10-19T10:34:09;2.75;;;1.40;;
77868;SDS011;67231;59.144;37.934;2023-10-19T10:37:19;3.63;;;1.50;;
77868;SDS011;67231;59.144;37.934;2023-10-19T10:39:31;4.53;;;1.70;;
77868;SDS011;67231;59.144;37.934;2023-10-19T10:41:58;2.47;;;1.40;;
77868;SDS011;67231;59.144;37.934;2023-10-19T10:44:42;3.35;;;1.45;;
77868;SDS011;67231;59.144;37.934;2023-10-19T10:47:19;2.20;;;1.20;;
77868;SDS011;67231;59.144;37.934;2023-10-19T10:49:49;3.88;;;1.48;;
77868;SDS011;67231;59.144;37.934;2023-10-19T10:52:31;2.95;;;1.45;;
77868;SDS011;67231;59.144;37.934;2023-10-19T10:55:13;3.72;;;1.52;;
77868;SDS011;67231;59.144;37.934;2023-10-19T10:57:41;2.47;;;1.30;;
77868;SDS011;67231;59.144;37.934;2023-10-19T11:00:10;2.45;;;1.23;;
77868;SDS011;67231;59.144;37.934;2023-10-19T11:02:59;2.70;;;1.48;;
77868;SDS011;67231;59.144;37.934;2023-10-19T11:05:28;3.30;;;1.48;;
77868;SDS011;67231;59.144;37.934;2023-10-19T11:10:42;3.72;;;1.70;;
77868;SDS011;67231;59.144;37.934;2023-10-19T11:13:13;4.55;;;1.73;;
77868;SDS011;67231;59.144;37.934;2023-10-19T11:21:13;4.10;;;1.42;;
77868;SDS011;67231;59.144;37.934;2023-10-19T11:23:48;2.75;;;1.48;;
77868;SDS011;67231;59.144;37.934;2023-10-19T11:26:16;3.13;;;1.70;;
77868;SDS011;67231;59.144;37.934;2023-10-19T11:28:45;2.05;;;1.30;;
77868;SDS011;67231;59.144;37.934;2023-10-19T11:31:18;3.22;;;1.60;;
77868;SDS011;67231;59.144;37.934;2023-10-19T11:33:48;3.25;;;1.55;;
77868;SDS011;67231;59.144;37.934;2023-10-19T11:36:19;3.78;;;1.67;;
77868;SDS011;67231;59.144;37.934;2023-10-19T11:38:47;2.92;;;1.48;;
77868;SDS011;67231;59.144;37.934;2023-10-19T11:41:15;2.63;;;1.52;;
77868;SDS011;67231;59.144;37.934;2023-10-19T11:43:43;3.65;;;1.55;;
77868;SDS011;67231;59.144;37.934;2023-10-19T11:46:11;6.82;;;2.63;;
77868;SDS011;67231;59.144;37.934;2023-10-19T11:48:39;5.13;;;2.05;;
77868;SDS011;67231;59.144;37.934;2023-10-19T11:51:06;5.43;;;2.22;;
77868;SDS011;67231;59.144;37.934;2023-10-19T11:53:34;7.43;;;3.50;;
77868;SDS011;67231;59.144;37.934;2023-10-19T11:56:03;5.88;;;2.60;;
77868;SDS011;67231;59.144;37.934;2023-10-19T11:58:32;5.10;;;2.30;;
77868;SDS011;67231;59.144;37.934;2023-10-19T12:01:01;4.28;;;1.77;;
77868;SDS011;67231;59.144;37.934;2023-10-19T12:03:42;5.57;;;2.65;;
77868;SDS011;67231;59.144;37.934;2023-10-19T12:06:12;4.25;;;2.50;;
77868;SDS011;67231;59.144;37.934;2023-10-19T12:08:45;3.70;;;2.10;;
77868;SDS011;67231;59.144;37.934;2023-10-19T12:11:13;3.38;;;1.70;;
77868;SDS011;67231;59.144;37.934;2023-10-19T12:13:45;2.90;;;1.58;;
77868;SDS011;67231;59.144;37.934;2023-10-19T12:16:13;4.45;;;1.75;;
77868;SDS011;67231;59.144;37.934;2023-10-19T12:18:42;3.05;;;1.63;;
77868;SDS011;67231;59.144;37.934;2023-10-19T12:21:09;4.25;;;1.80;;
77868;SDS011;67231;59.144;37.934;2023-10-19T12:23:43;7.10;;;1.70;;
77868;SDS011;67231;59.144;37.934;2023-10-19T12:26:10;5.45;;;2.25;;
77868;SDS011;67231;59.144;37.934;2023-10-19T12:28:37;4.63;;;2.22;;
77868;SDS011;67231;59.144;37.934;2023-10-19T12:31:04;9.70;;;3.53;;
77868;SDS011;67231;59.144;37.934;2023-10-19T12:33:38;7.50;;;2.65;;
77868;SDS011;67231;59.144;37.934;2023-10-19T12:36:05;5.05;;;2.10;;
77868;SDS011;67231;59.144;37.934;2023-10-19T12:38:50;6.13;;;2.08;;
77868;SDS011;67231;59.144;37.934;2023-10-19T12:41:18;2.88;;;1.55;;
77868;SDS011;67231;59.144;37.934;2023-10-19T12:43:45;2.83;;;1.40;;
77868;SDS011;67231;59.144;37.934;2023-10-19T12:46:13;2.88;;;1.52;;
77868;SDS011;67231;59.144;37.934;2023-10-19T12:48:40;2.45;;;1.40;;
77868;SDS011;67231;59.144;37.934;2023-10-19T12:51:06;2.22;;;1.20;;
77868;SDS011;67231;59.144;37.934;2023-10-19T12:53:33;2.08;;;1.13;;
77868;SDS011;67231;59.144;37.934;2023-10-19T12:56:00;2.33;;;1.33;;
77868;SDS011;67231;59.144;37.934;2023-10-19T12:58:28;2.35;;;1.02;;
77868;SDS011;67231;59.144;37.934;2023-10-19T13:00:55;3.67;;;1.20;;
77868;SDS011;67231;59.144;37.934;2023-10-19T13:03:22;2.60;;;1.27;;
77868;SDS011;67231;59.144;37.934;2023-10-19T13:05:50;1.95;;;1.10;;
77868;SDS011;67231;59.144;37.934;2023-10-19T13:08:17;2.33;;;1.20;;
77868;SDS011;67231;59.144;37.934;2023-10-19T13:10:46;2.63;;;1.25;;
77868;SDS011;67231;59.144;37.934;2023-10-19T13:13:14;3.83;;;1.45;;
77868;SDS011;67231;59.144;37.934;2023-10-19T13:15:42;3.35;;;1.85;;
77868;SDS011;67231;59.144;37.934;2023-10-19T13:18:11;4.68;;;1.80;;
77868;SDS011;67231;59.144;37.934;2023-10-19T13:20:46;4.95;;;1.60;;
77868;SDS011;67231;59.144;37.934;2023-10-19T13:23:15;3.00;;;1.48;;
77868;SDS011;67231;59.144;37.934;2023-10-19T13:25:59;2.42;;;1.42;;
77868;SDS011;67231;59.144;37.934;2023-10-19T13:28:44;4.07;;;1.70;;
77868;SDS011;67231;59.144;37.934;2023-10-19T13:31:11;3.72;;;1.55;;
77868;SDS011;67231;59.144;37.934;2023-10-19T13:33:41;3.90;;;2.00;;
77868;SDS011;67231;59.144;37.934;2023-10-19T13:36:10;4.43;;;1.80;;
77868;SDS011;67231;59.144;37.934;2023-10-19T13:38:36;4.35;;;2.20;;
77868;SDS011;67231;59.144;37.934;2023-10-19T13:41:04;4.75;;;2.10;;
77868;SDS011;67231;59.144;37.934;2023-10-19T13:43:33;5.93;;;2.70;;
77868;SDS011;67231;59.144;37.934;2023-10-19T13:46:00;7.93;;;3.40;;
77868;SDS011;67231;59.144;37.934;2023-10-19T13:48:27;13.05;;;5.20;;
77868;SDS011;67231;59.144;37.934;2023-10-19T13:50:54;11.38;;;5.07;;
77868;SDS011;67231;59.144;37.934;2023-10-19T13:53:27;11.43;;;4.50;;
77868;SDS011;67231;59.144;37.934;2023-10-19T13:55:54;13.88;;;5.75;;
77868;SDS011;67231;59.144;37.934;2023-10-19T13:58:20;11.93;;;4.72;;
77868;SDS011;67231;59.144;37.934;2023-10-19T14:00:47;11.95;;;4.97;;
77868;SDS011;67231;59.144;37.934;2023-10-19T14:03:15;5.50;;;2.38;;
77868;SDS011;67231;59.144;37.934;2023-10-19T14:05:43;8.38;;;3.28;;
77868;SDS011;67231;59.144;37.934;2023-10-19T14:08:18;6.47;;;3.30;;
77868;SDS011;67231;59.144;37.934;2023-10-19T14:10:46;10.75;;;5.28;;
77868;SDS011;67231;59.144;37.934;2023-10-19T14:13:13;4.95;;;2.80;;
77868;SDS011;67231;59.144;37.934;2023-10-19T14:15:43;5.32;;;2.80;;
77868;SDS011;67231;59.144;37.934;2023-10-19T14:18:10;5.57;;;2.33;;
77868;SDS011;67231;59.144;37.934;2023-10-19T14:20:39;3.45;;;1.83;;
77868;SDS011;67231;59.144;37.934;2023-10-19T14:23:06;4.97;;;1.90;;
77868;SDS011;67231;59.144;37.934;2023-10-19T14:25:37;4.38;;;2.00;;
77868;SDS011;67231;59.144;37.934;2023-10-19T14:28:05;3.33;;;1.70;;
77868;SDS011;67231;59.144;37.934;2023-10-19T14:30:36;4.20;;;1.90;;
77868;SDS011;67231;59.144;37.934;2023-10-19T14:33:02;6.05;;;2.13;;
77868;SDS011;67231;59.144;37.934;2023-10-19T14:35:30;5.88;;;2.08;;
77868;SDS011;67231;59.144;37.934;2023-10-19T14:37:58;4.43;;;1.95;;
77868;SDS011;67231;59.144;37.934;2023-10-19T14:40:27;6.90;;;2.83;;
77868;SDS011;67231;59.144;37.934;2023-10-19T14:42:55;6.65;;;2.90;;
77868;SDS011;67231;59.144;37.934;2023-10-19T14:45:24;7.93;;;3.58;;
77868;SDS011;67231;59.144;37.934;2023-10-19T14:47:53;9.20;;;3.70;;
77868;SDS011;67231;59.144;37.934;2023-10-19T14:50:29;6.65;;;3.35;;
77868;SDS011;67231;59.144;37.934;2023-10-19T14:52:56;7.47;;;3.55;;
77868;SDS011;67231;59.144;37.934;2023-10-19T14:55:23;7.20;;;2.90;;
77868;SDS011;67231;59.144;37.934;2023-10-19T14:57:51;4.35;;;2.38;;
77868;SDS011;67231;59.144;37.934;2023-10-19T15:00:24;4.45;;;2.40;;
77868;SDS011;67231;59.144;37.934;2023-10-19T15:03:00;6.32;;;2.65;;
77868;SDS011;67231;59.144;37.934;2023-10-19T15:05:33;7.57;;;3.58;;
77868;SDS011;67231;59.144;37.934;2023-10-19T15:08:05;10.10;;;5.38;;
77868;SDS011;67231;59.144;37.934;2023-10-19T15:10:33;7.80;;;4.50;;
77868;SDS011;67231;59.144;37.934;2023-10-19T15:13:01;6.50;;;3.28;;
77868;SDS011;67231;59.144;37.934;2023-10-19T15:15:29;10.20;;;4.18;;
77868;SDS011;67231;59.144;37.934;2023-10-19T15:17:56;6.03;;;3.05;;
77868;SDS011;67231;59.144;37.934;2023-10-19T15:20:25;5.55;;;3.00;;
77868;SDS011;67231;59.144;37.934;2023-10-19T15:22:52;6.75;;;2.85;;
77868;SDS011;67231;59.144;37.934;2023-10-19T15:25:22;6.60;;;2.90;;
77868;SDS011;67231;59.144;37.934;2023-10-19T15:27:52;7.53;;;3.60;;
77868;SDS011;67231;59.144;37.934;2023-10-19T15:30:20;7.38;;;3.22;;